sensor_id;sensor_type;location;lat;lon;timestamp;P1;durP1;ratioP1;P2;durP2;ratioP2
75316;SDS011;63913;51.492;10.368;2023-11-22T00:00:02;2.42;;;1.35;;
75316;SDS011;63913;51.492;10.368;2023-11-22T00:02:33;3.80;;;1.48;;
75316;SDS011;63913;51.492;10.368;2023-11-22T00:04:59;1.23;;;1.02;;
75316;SDS011;63913;51.492;10.368;2023-11-22T00:07:25;2.28;;;1.25;;
75316;SDS011;63913;51.492;10.368;2023-11-22T00:09:54;2.60;;;1.50;;
75316;SDS011;63913;51.492;10.368;2023-11-22T00:12:20;3.10;;;1.15;;
75316;SDS011;63913;51.492;10.368;2023-11-22T00:14:45;4.28;;;1.63;;
75316;SDS011;63913;51.492;10.368;2023-11-22T00:17:12;3.85;;;1.42;;
75316;SDS011;63913;51.492;10.368;2023-11-22T00:19:37;2.03;;;1.05;;
75316;SDS011;63913;51.492;10.368;2023-11-22T00:22:03;2.33;;;1.30;;
75316;SDS011;63913;51.492;10.368;2023-11-22T00:24:36;2.42;;;1.35;;
75316;SDS011;63913;51.492;10.368;2023-11-22T00:27:02;2.13;;;1.20;;
75316;SDS011;63913;51.492;10.368;2023-11-22T00:29:28;2.30;;;1.33;;
75316;SDS011;63913;51.492;10.368;2023-11-22T00:31:53;2.50;;;1.13;;
75316;SDS011;63913;51.492;10.368;2023-11-22T00:34:18;1.90;;;1.00;;
75316;SDS011;63913;51.492;10.368;2023-11-22T00:36:44;2.05;;;1.23;;
75316;SDS011;63913;51.492;10.368;2023-11-22T00:39:09;2.17;;;0.98;;
75316;SDS011;63913;51.492;10.368;2023-11-22T00:41:39;1.70;;;1.20;;
75316;SDS011;63913;51.492;10.368;2023-11-22T00:44:04;2.53;;;1.30;;
75316;SDS011;63913;51.492;10.368;2023-11-22T00:46:31;3.20;;;1.08;;
75316;SDS011;63913;51.492;10.368;2023-11-22T00:48:57;2.83;;;1.20;;
75316;SDS011;63913;51.492;10.368;2023-11-22T00:51:22;2.80;;;1.20;;
75316;SDS011;63913;51.492;10.368;2023-11-22T00:53:48;2.83;;;1.60;;
75316;SDS011;63913;51.492;10.368;2023-11-22T00:56:15;2.47;;;1.02;;
75316;SDS011;63913;51.492;10.368;2023-11-22T00:58:40;2.83;;;1.10;;
75316;SDS011;63913;51.492;10.368;2023-11-22T01:01:06;1.60;;;1.10;;
75316;SDS011;63913;51.492;10.368;2023-11-22T01:03:32;2.08;;;1.20;;
75316;SDS011;63913;51.492;10.368;2023-11-22T01:05:57;3.58;;;1.23;;
75316;SDS011;63913;51.492;10.368;2023-11-22T01:08:23;1.88;;;1.17;;
75316;SDS011;63913;51.492;10.368;2023-11-22T01:10:48;1.27;;;0.90;;
75316;SDS011;63913;51.492;10.368;2023-11-22T01:13:14;1.90;;;1.23;;
75316;SDS011;63913;51.492;10.368;2023-11-22T01:15:40;2.05;;;1.13;;
75316;SDS011;63913;51.492;10.368;2023-11-22T01:18:06;6.28;;;1.55;;
75316;SDS011;63913;51.492;10.368;2023-11-22T01:20:32;2.45;;;1.65;;
75316;SDS011;63913;51.492;10.368;2023-11-22T01:22:58;4.05;;;1.70;;
75316;SDS011;63913;51.492;10.368;2023-11-22T01:25:23;2.50;;;1.17;;
75316;SDS011;63913;51.492;10.368;2023-11-22T01:27:49;1.73;;;1.05;;
75316;SDS011;63913;51.492;10.368;2023-11-22T01:30:14;1.23;;;1.10;;
75316;SDS011;63913;51.492;10.368;2023-11-22T01:32:40;2.00;;;1.40;;
75316;SDS011;63913;51.492;10.368;2023-11-22T01:35:05;2.15;;;1.25;;
75316;SDS011;63913;51.492;10.368;2023-11-22T01:37:31;1.45;;;1.02;;
75316;SDS011;63913;51.492;10.368;2023-11-22T01:39:57;2.45;;;1.50;;
75316;SDS011;63913;51.492;10.368;2023-11-22T01:42:23;2.78;;;1.02;;
75316;SDS011;63913;51.492;10.368;2023-11-22T01:44:50;1.65;;;1.10;;
75316;SDS011;63913;51.492;10.368;2023-11-22T01:47:17;2.17;;;1.10;;
75316;SDS011;63913;51.492;10.368;2023-11-22T01:49:43;2.17;;;1.10;;
75316;SDS011;63913;51.492;10.368;2023-11-22T01:52:09;2.80;;;1.23;;
75316;SDS011;63913;51.492;10.368;2023-11-22T01:54:35;1.65;;;1.00;;
75316;SDS011;63913;51.492;10.368;2023-11-22T01:57:02;2.88;;;0.93;;
75316;SDS011;63913;51.492;10.368;2023-11-22T01:59:28;1.50;;;1.20;;
75316;SDS011;63913;51.492;10.368;2023-11-22T02:01:54;2.85;;;1.35;;
75316;SDS011;63913;51.492;10.368;2023-11-22T02:04:20;2.67;;;1.00;;
75316;SDS011;63913;51.492;10.368;2023-11-22T02:06:46;2.33;;;1.20;;
75316;SDS011;63913;51.492;10.368;2023-11-22T02:09:12;2.20;;;1.20;;
75316;SDS011;63913;51.492;10.368;2023-11-22T02:11:41;2.38;;;0.88;;
75316;SDS011;63913;51.492;10.368;2023-11-22T02:14:07;1.30;;;1.02;;
75316;SDS011;63913;51.492;10.368;2023-11-22T02:16:34;3.47;;;1.23;;
75316;SDS011;63913;51.492;10.368;2023-11-22T02:19:00;2.03;;;1.20;;
75316;SDS011;63913;51.492;10.368;2023-11-22T02:21:26;1.60;;;1.08;;
75316;SDS011;63913;51.492;10.368;2023-11-22T02:23:51;1.48;;;0.82;;
75316;SDS011;63913;51.492;10.368;2023-11-22T02:26:16;2.95;;;1.30;;
75316;SDS011;63913;51.492;10.368;2023-11-22T02:28:45;1.13;;;0.80;;
75316;SDS011;63913;51.492;10.368;2023-11-22T02:31:10;1.60;;;1.05;;
75316;SDS011;63913;51.492;10.368;2023-11-22T02:33:36;6.75;;;1.35;;
75316;SDS011;63913;51.492;10.368;2023-11-22T02:36:01;3.92;;;1.27;;
75316;SDS011;63913;51.492;10.368;2023-11-22T02:38:28;3.20;;;1.20;;
75316;SDS011;63913;51.492;10.368;2023-11-22T02:40:54;1.38;;;1.10;;
75316;SDS011;63913;51.492;10.368;2023-11-22T02:43:20;1.70;;;1.00;;
75316;SDS011;63913;51.492;10.368;2023-11-22T02:45:46;1.65;;;1.08;;
75316;SDS011;63913;51.492;10.368;2023-11-22T02:48:11;2.42;;;1.30;;
75316;SDS011;63913;51.492;10.368;2023-11-22T02:50:38;1.10;;;1.00;;
75316;SDS011;63913;51.492;10.368;2023-11-22T02:53:04;1.60;;;0.88;;
75316;SDS011;63913;51.492;10.368;2023-11-22T02:55:29;2.08;;;0.95;;
75316;SDS011;63913;51.492;10.368;2023-11-22T02:57:55;1.73;;;0.82;;
75316;SDS011;63913;51.492;10.368;2023-11-22T03:00:20;1.98;;;1.00;;
75316;SDS011;63913;51.492;10.368;2023-11-22T03:02:46;2.55;;;0.82;;
75316;SDS011;63913;51.492;10.368;2023-11-22T03:05:12;3.28;;;1.05;;
75316;SDS011;63913;51.492;10.368;2023-11-22T03:07:42;1.35;;;1.20;;
75316;SDS011;63913;51.492;10.368;2023-11-22T03:10:08;1.73;;;1.20;;
75316;SDS011;63913;51.492;10.368;2023-11-22T03:12:34;2.13;;;1.02;;
75316;SDS011;63913;51.492;10.368;2023-11-22T03:15:01;3.30;;;1.20;;
75316;SDS011;63913;51.492;10.368;2023-11-22T03:17:28;2.60;;;1.58;;
75316;SDS011;63913;51.492;10.368;2023-11-22T03:19:54;3.53;;;1.30;;
75316;SDS011;63913;51.492;10.368;2023-11-22T03:22:22;2.63;;;1.13;;
75316;SDS011;63913;51.492;10.368;2023-11-22T03:24:49;3.72;;;1.20;;
75316;SDS011;63913;51.492;10.368;2023-11-22T03:27:15;2.22;;;1.10;;
75316;SDS011;63913;51.492;10.368;2023-11-22T03:29:40;2.97;;;1.50;;
75316;SDS011;63913;51.492;10.368;2023-11-22T03:32:06;2.55;;;1.23;;
75316;SDS011;63913;51.492;10.368;2023-11-22T03:34:31;3.78;;;1.17;;
75316;SDS011;63913;51.492;10.368;2023-11-22T03:36:58;2.70;;;1.13;;
75316;SDS011;63913;51.492;10.368;2023-11-22T03:39:23;2.33;;;1.20;;
75316;SDS011;63913;51.492;10.368;2023-11-22T03:41:50;2.10;;;1.13;;
75316;SDS011;63913;51.492;10.368;2023-11-22T03:44:16;3.40;;;1.45;;
75316;SDS011;63913;51.492;10.368;2023-11-22T03:46:41;3.30;;;1.58;;
75316;SDS011;63913;51.492;10.368;2023-11-22T03:49:07;2.55;;;1.00;;
75316;SDS011;63913;51.492;10.368;2023-11-22T03:51:33;2.42;;;1.20;;
75316;SDS011;63913;51.492;10.368;2023-11-22T03:54:03;1.85;;;1.20;;
75316;SDS011;63913;51.492;10.368;2023-11-22T03:56:29;1.67;;;1.30;;
75316;SDS011;63913;51.492;10.368;2023-11-22T03:58:54;1.80;;;0.77;;
75316;SDS011;63913;51.492;10.368;2023-11-22T04:01:20;0.88;;;0.75;;
75316;SDS011;63913;51.492;10.368;2023-11-22T04:03:49;3.78;;;0.95;;
75316;SDS011;63913;51.492;10.368;2023-11-22T04:06:15;2.80;;;0.90;;
75316;SDS011;63913;51.492;10.368;2023-11-22T04:08:42;1.98;;;1.13;;
75316;SDS011;63913;51.492;10.368;2023-11-22T04:11:09;1.27;;;0.90;;
75316;SDS011;63913;51.492;10.368;2023-11-22T04:13:35;3.08;;;0.82;;
75316;SDS011;63913;51.492;10.368;2023-11-22T04:16:00;1.90;;;1.00;;
75316;SDS011;63913;51.492;10.368;2023-11-22T04:18:26;1.60;;;1.05;;
75316;SDS011;63913;51.492;10.368;2023-11-22T04:20:52;1.50;;;0.90;;
75316;SDS011;63913;51.492;10.368;2023-11-22T04:23:17;1.92;;;1.17;;
75316;SDS011;63913;51.492;10.368;2023-11-22T04:25:43;1.48;;;0.77;;
75316;SDS011;63913;51.492;10.368;2023-11-22T04:28:08;2.30;;;1.10;;
75316;SDS011;63913;51.492;10.368;2023-11-22T04:30:35;2.38;;;1.05;;
75316;SDS011;63913;51.492;10.368;2023-11-22T04:33:00;1.95;;;1.17;;
75316;SDS011;63913;51.492;10.368;2023-11-22T04:35:26;2.00;;;0.73;;
75316;SDS011;63913;51.492;10.368;2023-11-22T04:37:52;2.78;;;1.00;;
75316;SDS011;63913;51.492;10.368;2023-11-22T04:40:18;3.78;;;1.23;;
75316;SDS011;63913;51.492;10.368;2023-11-22T04:42:43;1.50;;;0.80;;
75316;SDS011;63913;51.492;10.368;2023-11-22T04:45:09;1.88;;;1.00;;
75316;SDS011;63913;51.492;10.368;2023-11-22T04:47:35;5.40;;;0.85;;
75316;SDS011;63913;51.492;10.368;2023-11-22T04:50:00;2.33;;;1.10;;
75316;SDS011;63913;51.492;10.368;2023-11-22T04:52:26;1.92;;;0.85;;
75316;SDS011;63913;51.492;10.368;2023-11-22T04:54:51;0.95;;;0.70;;
75316;SDS011;63913;51.492;10.368;2023-11-22T04:57:16;1.90;;;1.15;;
75316;SDS011;63913;51.492;10.368;2023-11-22T04:59:42;1.80;;;1.05;;
75316;SDS011;63913;51.492;10.368;2023-11-22T05:02:07;3.00;;;1.27;;
75316;SDS011;63913;51.492;10.368;2023-11-22T05:04:36;2.22;;;1.15;;
75316;SDS011;63913;51.492;10.368;2023-11-22T05:07:01;3.30;;;1.25;;
75316;SDS011;63913;51.492;10.368;2023-11-22T05:09:28;2.25;;;1.33;;
75316;SDS011;63913;51.492;10.368;2023-11-22T05:11:53;2.90;;;1.30;;
75316;SDS011;63913;51.492;10.368;2023-11-22T05:14:19;1.85;;;0.90;;
75316;SDS011;63913;51.492;10.368;2023-11-22T05:16:44;2.05;;;1.23;;
75316;SDS011;63913;51.492;10.368;2023-11-22T05:19:09;2.65;;;1.23;;
75316;SDS011;63913;51.492;10.368;2023-11-22T05:21:35;2.15;;;1.20;;
75316;SDS011;63913;51.492;10.368;2023-11-22T05:24:01;1.50;;;1.13;;
75316;SDS011;63913;51.492;10.368;2023-11-22T05:26:26;2.85;;;1.50;;
75316;SDS011;63913;51.492;10.368;2023-11-22T05:28:52;2.15;;;1.10;;
75316;SDS011;63913;51.492;10.368;2023-11-22T05:31:19;3.65;;;1.20;;
75316;SDS011;63913;51.492;10.368;2023-11-22T05:33:45;3.63;;;1.38;;
75316;SDS011;63913;51.492;10.368;2023-11-22T05:36:11;2.13;;;0.98;;
75316;SDS011;63913;51.492;10.368;2023-11-22T05:38:36;2.53;;;1.23;;
75316;SDS011;63913;51.492;10.368;2023-11-22T05:41:03;2.08;;;1.50;;
75316;SDS011;63913;51.492;10.368;2023-11-22T05:43:28;4.50;;;2.60;;
75316;SDS011;63913;51.492;10.368;2023-11-22T05:45:54;3.28;;;1.90;;
75316;SDS011;63913;51.492;10.368;2023-11-22T05:48:19;2.25;;;1.20;;
75316;SDS011;63913;51.492;10.368;2023-11-22T05:50:45;1.95;;;0.90;;
75316;SDS011;63913;51.492;10.368;2023-11-22T05:53:11;2.45;;;1.15;;
75316;SDS011;63913;51.492;10.368;2023-11-22T05:55:37;1.67;;;0.85;;
75316;SDS011;63913;51.492;10.368;2023-11-22T05:58:05;1.17;;;1.02;;
75316;SDS011;63913;51.492;10.368;2023-11-22T06:00:31;2.63;;;1.10;;
75316;SDS011;63913;51.492;10.368;2023-11-22T06:02:56;1.80;;;1.13;;
75316;SDS011;63913;51.492;10.368;2023-11-22T06:05:22;2.92;;;1.42;;
75316;SDS011;63913;51.492;10.368;2023-11-22T06:07:47;2.03;;;1.13;;
75316;SDS011;63913;51.492;10.368;2023-11-22T06:10:13;1.30;;;1.20;;
75316;SDS011;63913;51.492;10.368;2023-11-22T06:12:39;2.10;;;1.30;;
75316;SDS011;63913;51.492;10.368;2023-11-22T06:15:05;2.35;;;1.17;;
75316;SDS011;63913;51.492;10.368;2023-11-22T06:17:31;3.50;;;1.08;;
75316;SDS011;63913;51.492;10.368;2023-11-22T06:19:56;2.17;;;1.23;;
75316;SDS011;63913;51.492;10.368;2023-11-22T06:22:22;2.45;;;1.02;;
75316;SDS011;63913;51.492;10.368;2023-11-22T06:24:47;2.05;;;1.20;;
75316;SDS011;63913;51.492;10.368;2023-11-22T06:27:13;1.70;;;1.00;;
75316;SDS011;63913;51.492;10.368;2023-11-22T06:29:40;1.40;;;1.15;;
75316;SDS011;63913;51.492;10.368;2023-11-22T06:32:08;1.63;;;1.23;;
75316;SDS011;63913;51.492;10.368;2023-11-22T06:34:34;2.17;;;1.15;;
75316;SDS011;63913;51.492;10.368;2023-11-22T06:37:01;3.40;;;1.42;;
75316;SDS011;63913;51.492;10.368;2023-11-22T06:39:26;2.47;;;1.38;;
75316;SDS011;63913;51.492;10.368;2023-11-22T06:41:52;1.85;;;1.30;;
75316;SDS011;63913;51.492;10.368;2023-11-22T06:44:17;1.17;;;1.00;;
75316;SDS011;63913;51.492;10.368;2023-11-22T06:46:43;3.22;;;1.25;;
75316;SDS011;63913;51.492;10.368;2023-11-22T06:49:09;4.05;;;1.60;;
75316;SDS011;63913;51.492;10.368;2023-11-22T06:51:34;2.45;;;1.45;;
75316;SDS011;63913;51.492;10.368;2023-11-22T06:54:00;5.68;;;2.15;;
75316;SDS011;63913;51.492;10.368;2023-11-22T06:56:25;3.72;;;2.03;;
75316;SDS011;63913;51.492;10.368;2023-11-22T06:58:50;9.90;;;2.80;;
75316;SDS011;63913;51.492;10.368;2023-11-22T07:01:16;9.30;;;3.42;;
75316;SDS011;63913;51.492;10.368;2023-11-22T07:03:42;4.93;;;2.40;;
75316;SDS011;63913;51.492;10.368;2023-11-22T07:06:07;3.30;;;1.90;;
75316;SDS011;63913;51.492;10.368;2023-11-22T07:08:33;2.63;;;1.70;;
75316;SDS011;63913;51.492;10.368;2023-11-22T07:10:59;2.90;;;1.65;;
75316;SDS011;63913;51.492;10.368;2023-11-22T07:13:25;2.47;;;1.58;;
75316;SDS011;63913;51.492;10.368;2023-11-22T07:15:51;3.25;;;1.77;;
75316;SDS011;63913;51.492;10.368;2023-11-22T07:18:19;3.53;;;1.88;;
75316;SDS011;63913;51.492;10.368;2023-11-22T07:20:44;2.67;;;1.95;;
75316;SDS011;63913;51.492;10.368;2023-11-22T07:23:10;3.88;;;1.80;;
75316;SDS011;63913;51.492;10.368;2023-11-22T07:25:39;2.90;;;1.80;;
75316;SDS011;63913;51.492;10.368;2023-11-22T07:28:06;4.90;;;1.90;;
75316;SDS011;63913;51.492;10.368;2023-11-22T07:30:32;2.80;;;1.90;;
75316;SDS011;63913;51.492;10.368;2023-11-22T07:32:58;3.83;;;2.00;;
75316;SDS011;63913;51.492;10.368;2023-11-22T07:35:24;3.97;;;2.00;;
75316;SDS011;63913;51.492;10.368;2023-11-22T07:37:54;3.22;;;1.90;;
75316;SDS011;63913;51.492;10.368;2023-11-22T07:40:20;2.90;;;1.75;;
75316;SDS011;63913;51.492;10.368;2023-11-22T07:42:47;2.65;;;1.60;;
75316;SDS011;63913;51.492;10.368;2023-11-22T07:45:12;6.43;;;2.50;;
75316;SDS011;63913;51.492;10.368;2023-11-22T07:47:38;3.50;;;1.95;;
75316;SDS011;63913;51.492;10.368;2023-11-22T07:50:08;4.82;;;1.90;;
75316;SDS011;63913;51.492;10.368;2023-11-22T07:52:35;3.13;;;1.83;;
75316;SDS011;63913;51.492;10.368;2023-11-22T07:55:01;3.08;;;1.90;;
75316;SDS011;63913;51.492;10.368;2023-11-22T07:57:27;4.47;;;2.13;;
75316;SDS011;63913;51.492;10.368;2023-11-22T07:59:53;4.60;;;2.10;;
75316;SDS011;63913;51.492;10.368;2023-11-22T08:02:20;4.38;;;2.13;;
75316;SDS011;63913;51.492;10.368;2023-11-22T08:04:46;5.07;;;2.10;;
75316;SDS011;63913;51.492;10.368;2023-11-22T08:07:13;2.10;;;1.63;;
75316;SDS011;63913;51.492;10.368;2023-11-22T08:09:39;3.88;;;2.13;;
75316;SDS011;63913;51.492;10.368;2023-11-22T08:12:06;3.40;;;1.55;;
75316;SDS011;63913;51.492;10.368;2023-11-22T08:14:32;3.70;;;1.90;;
75316;SDS011;63913;51.492;10.368;2023-11-22T08:16:58;4.05;;;2.05;;
75316;SDS011;63913;51.492;10.368;2023-11-22T08:19:23;4.10;;;2.22;;
75316;SDS011;63913;51.492;10.368;2023-11-22T08:21:49;5.68;;;2.35;;
75316;SDS011;63913;51.492;10.368;2023-11-22T08:24:16;6.05;;;2.60;;
75316;SDS011;63913;51.492;10.368;2023-11-22T08:26:42;4.40;;;1.88;;
75316;SDS011;63913;51.492;10.368;2023-11-22T08:29:07;4.93;;;2.40;;
75316;SDS011;63913;51.492;10.368;2023-11-22T08:31:33;5.63;;;2.45;;
75316;SDS011;63913;51.492;10.368;2023-11-22T08:34:01;5.28;;;2.55;;
75316;SDS011;63913;51.492;10.368;2023-11-22T08:36:29;6.00;;;2.50;;
75316;SDS011;63913;51.492;10.368;2023-11-22T08:39:05;6.85;;;2.65;;
75316;SDS011;63913;51.492;10.368;2023-11-22T08:41:33;5.68;;;2.72;;
75316;SDS011;63913;51.492;10.368;2023-11-22T08:43:58;4.55;;;2.50;;
75316;SDS011;63913;51.492;10.368;2023-11-22T08:46:25;4.53;;;2.70;;
75316;SDS011;63913;51.492;10.368;2023-11-22T08:48:51;5.35;;;2.45;;
75316;SDS011;63913;51.492;10.368;2023-11-22T08:51:16;6.50;;;2.58;;
75316;SDS011;63913;51.492;10.368;2023-11-22T08:53:42;5.70;;;3.08;;
75316;SDS011;63913;51.492;10.368;2023-11-22T08:56:09;4.90;;;2.60;;
75316;SDS011;63913;51.492;10.368;2023-11-22T08:58:36;4.22;;;2.65;;
75316;SDS011;63913;51.492;10.368;2023-11-22T09:01:02;6.63;;;3.10;;
75316;SDS011;63913;51.492;10.368;2023-11-22T09:03:34;4.93;;;2.75;;
75316;SDS011;63913;51.492;10.368;2023-11-22T09:06:15;5.03;;;2.45;;
75316;SDS011;63913;51.492;10.368;2023-11-22T09:08:41;7.97;;;2.95;;
75316;SDS011;63913;51.492;10.368;2023-11-22T09:11:06;6.18;;;3.05;;
75316;SDS011;63913;51.492;10.368;2023-11-22T09:13:32;8.43;;;4.22;;
75316;SDS011;63913;51.492;10.368;2023-11-22T09:15:57;6.75;;;3.30;;
75316;SDS011;63913;51.492;10.368;2023-11-22T09:18:23;6.25;;;3.03;;
75316;SDS011;63913;51.492;10.368;2023-11-22T09:20:49;6.13;;;3.22;;
75316;SDS011;63913;51.492;10.368;2023-11-22T09:23:14;3.88;;;2.35;;
75316;SDS011;63913;51.492;10.368;2023-11-22T09:25:40;6.50;;;3.55;;
75316;SDS011;63913;51.492;10.368;2023-11-22T09:28:05;7.72;;;3.45;;
75316;SDS011;63913;51.492;10.368;2023-11-22T09:30:32;7.28;;;3.10;;
75316;SDS011;63913;51.492;10.368;2023-11-22T09:35:30;7.32;;;3.63;;
75316;SDS011;63913;51.492;10.368;2023-11-22T09:37:57;5.68;;;3.33;;
75316;SDS011;63913;51.492;10.368;2023-11-22T09:40:23;6.43;;;3.58;;
75316;SDS011;63913;51.492;10.368;2023-11-22T09:42:52;9.18;;;3.80;;
75316;SDS011;63913;51.492;10.368;2023-11-22T09:45:19;7.78;;;3.72;;
75316;SDS011;63913;51.492;10.368;2023-11-22T09:47:45;5.22;;;3.40;;
75316;SDS011;63913;51.492;10.368;2023-11-22T09:50:17;6.43;;;3.20;;
75316;SDS011;63913;51.492;10.368;2023-11-22T09:52:49;6.53;;;3.30;;
75316;SDS011;63913;51.492;10.368;2023-11-22T09:55:19;5.30;;;2.65;;
75316;SDS011;63913;51.492;10.368;2023-11-22T09:57:47;9.15;;;3.78;;
75316;SDS011;63913;51.492;10.368;2023-11-22T10:00:14;5.88;;;3.05;;
75316;SDS011;63913;51.492;10.368;2023-11-22T10:02:45;8.10;;;3.20;;
75316;SDS011;63913;51.492;10.368;2023-11-22T10:05:10;11.25;;;4.22;;
75316;SDS011;63913;51.492;10.368;2023-11-22T10:07:37;9.80;;;4.07;;
75316;SDS011;63913;51.492;10.368;2023-11-22T10:10:03;8.50;;;2.92;;
75316;SDS011;63913;51.492;10.368;2023-11-22T10:12:30;6.28;;;3.30;;
75316;SDS011;63913;51.492;10.368;2023-11-22T10:15:12;5.45;;;2.97;;
75316;SDS011;63913;51.492;10.368;2023-11-22T10:17:39;6.50;;;3.50;;
75316;SDS011;63913;51.492;10.368;2023-11-22T10:20:05;4.95;;;2.65;;
75316;SDS011;63913;51.492;10.368;2023-11-22T10:22:45;5.55;;;2.88;;
75316;SDS011;63913;51.492;10.368;2023-11-22T10:25:13;7.45;;;3.03;;
75316;SDS011;63913;51.492;10.368;2023-11-22T10:27:39;7.63;;;3.17;;
75316;SDS011;63913;51.492;10.368;2023-11-22T10:30:07;8.63;;;3.75;;
75316;SDS011;63913;51.492;10.368;2023-11-22T10:32:36;8.20;;;3.90;;
75316;SDS011;63913;51.492;10.368;2023-11-22T10:35:04;5.60;;;3.20;;
75316;SDS011;63913;51.492;10.368;2023-11-22T10:37:31;8.43;;;3.47;;
75316;SDS011;63913;51.492;10.368;2023-11-22T10:39:57;7.97;;;2.72;;
75316;SDS011;63913;51.492;10.368;2023-11-22T10:42:22;5.50;;;3.08;;
75316;SDS011;63913;51.492;10.368;2023-11-22T10:44:49;9.05;;;3.63;;
75316;SDS011;63913;51.492;10.368;2023-11-22T10:47:15;7.75;;;3.30;;
75316;SDS011;63913;51.492;10.368;2023-11-22T10:49:44;6.55;;;3.03;;
75316;SDS011;63913;51.492;10.368;2023-11-22T10:52:09;7.57;;;3.25;;
75316;SDS011;63913;51.492;10.368;2023-11-22T10:54:39;7.65;;;3.30;;
75316;SDS011;63913;51.492;10.368;2023-11-22T10:57:09;8.20;;;3.75;;
75316;SDS011;63913;51.492;10.368;2023-11-22T10:59:37;6.05;;;3.08;;
75316;SDS011;63913;51.492;10.368;2023-11-22T11:02:10;5.72;;;2.67;;
75316;SDS011;63913;51.492;10.368;2023-11-22T11:04:49;7.13;;;3.97;;
75316;SDS011;63913;51.492;10.368;2023-11-22T11:07:24;5.53;;;3.30;;
75316;SDS011;63913;51.492;10.368;2023-11-22T11:09:55;7.72;;;3.47;;
75316;SDS011;63913;51.492;10.368;2023-11-22T11:12:22;7.43;;;2.92;;
75316;SDS011;63913;51.492;10.368;2023-11-22T11:14:48;7.07;;;3.22;;
75316;SDS011;63913;51.492;10.368;2023-11-22T11:17:15;5.82;;;3.17;;
75316;SDS011;63913;51.492;10.368;2023-11-22T11:19:41;8.32;;;3.33;;
75316;SDS011;63913;51.492;10.368;2023-11-22T11:22:10;6.72;;;3.17;;
75316;SDS011;63913;51.492;10.368;2023-11-22T11:24:39;6.07;;;2.92;;
75316;SDS011;63913;51.492;10.368;2023-11-22T11:27:06;8.13;;;3.67;;
75316;SDS011;63913;51.492;10.368;2023-11-22T11:29:36;6.22;;;3.05;;
75316;SDS011;63913;51.492;10.368;2023-11-22T11:32:09;5.97;;;3.38;;
75316;SDS011;63913;51.492;10.368;2023-11-22T11:34:58;7.60;;;3.33;;
75316;SDS011;63913;51.492;10.368;2023-11-22T11:37:25;7.45;;;2.83;;
75316;SDS011;63913;51.492;10.368;2023-11-22T11:39:54;9.00;;;3.28;;
75316;SDS011;63913;51.492;10.368;2023-11-22T11:42:20;7.43;;;3.40;;
75316;SDS011;63913;51.492;10.368;2023-11-22T11:45:04;7.07;;;3.58;;
75316;SDS011;63913;51.492;10.368;2023-11-22T11:47:32;6.80;;;3.38;;
75316;SDS011;63913;51.492;10.368;2023-11-22T11:49:58;6.05;;;2.90;;
75316;SDS011;63913;51.492;10.368;2023-11-22T11:52:24;6.95;;;3.65;;
75316;SDS011;63913;51.492;10.368;2023-11-22T11:54:53;10.27;;;3.90;;
75316;SDS011;63913;51.492;10.368;2023-11-22T11:57:18;9.77;;;3.65;;
75316;SDS011;63913;51.492;10.368;2023-11-22T11:59:44;6.60;;;3.28;;
75316;SDS011;63913;51.492;10.368;2023-11-22T12:02:11;6.65;;;3.10;;
75316;SDS011;63913;51.492;10.368;2023-11-22T12:04:36;10.52;;;3.50;;
75316;SDS011;63913;51.492;10.368;2023-11-22T12:07:03;5.47;;;3.03;;
75316;SDS011;63913;51.492;10.368;2023-11-22T12:09:33;7.53;;;2.85;;
75316;SDS011;63913;51.492;10.368;2023-11-22T12:12:00;5.68;;;3.00;;
75316;SDS011;63913;51.492;10.368;2023-11-22T12:14:27;7.80;;;2.95;;
75316;SDS011;63913;51.492;10.368;2023-11-22T12:16:53;5.28;;;2.63;;
75316;SDS011;63913;51.492;10.368;2023-11-22T12:19:27;5.10;;;2.97;;
75316;SDS011;63913;51.492;10.368;2023-11-22T12:21:56;6.95;;;2.92;;
75316;SDS011;63913;51.492;10.368;2023-11-22T12:24:23;5.70;;;2.97;;
75316;SDS011;63913;51.492;10.368;2023-11-22T12:26:49;6.20;;;3.03;;
75316;SDS011;63913;51.492;10.368;2023-11-22T12:29:16;7.03;;;3.30;;
75316;SDS011;63913;51.492;10.368;2023-11-22T12:34:12;6.70;;;2.85;;
75316;SDS011;63913;51.492;10.368;2023-11-22T12:36:40;12.18;;;3.58;;
75316;SDS011;63913;51.492;10.368;2023-11-22T12:39:09;5.85;;;3.13;;
75316;SDS011;63913;51.492;10.368;2023-11-22T12:41:45;8.57;;;3.65;;
75316;SDS011;63913;51.492;10.368;2023-11-22T12:46:48;9.27;;;3.55;;
75316;SDS011;63913;51.492;10.368;2023-11-22T12:49:16;14.27;;;7.15;;
75316;SDS011;63913;51.492;10.368;2023-11-22T12:51:52;7.60;;;3.58;;
75316;SDS011;63913;51.492;10.368;2023-11-22T12:54:18;5.15;;;3.03;;
75316;SDS011;63913;51.492;10.368;2023-11-22T12:56:49;6.07;;;2.97;;
75316;SDS011;63913;51.492;10.368;2023-11-22T12:59:24;6.57;;;3.17;;
75316;SDS011;63913;51.492;10.368;2023-11-22T13:01:53;4.72;;;2.85;;
75316;SDS011;63913;51.492;10.368;2023-11-22T13:04:19;4.57;;;2.42;;
75316;SDS011;63913;51.492;10.368;2023-11-22T13:06:47;7.20;;;3.80;;
75316;SDS011;63913;51.492;10.368;2023-11-22T13:09:12;4.78;;;3.03;;
75316;SDS011;63913;51.492;10.368;2023-11-22T13:11:41;5.78;;;2.95;;
75316;SDS011;63913;51.492;10.368;2023-11-22T13:14:08;5.43;;;3.30;;
75316;SDS011;63913;51.492;10.368;2023-11-22T13:16:34;5.82;;;2.58;;
75316;SDS011;63913;51.492;10.368;2023-11-22T13:19:00;8.77;;;3.13;;
75316;SDS011;63913;51.492;10.368;2023-11-22T13:21:25;5.55;;;2.92;;
75316;SDS011;63913;51.492;10.368;2023-11-22T13:23:51;5.65;;;3.25;;
75316;SDS011;63913;51.492;10.368;2023-11-22T13:26:17;5.70;;;3.03;;
75316;SDS011;63913;51.492;10.368;2023-11-22T13:28:42;4.85;;;2.80;;
75316;SDS011;63913;51.492;10.368;2023-11-22T13:31:08;5.70;;;2.63;;
75316;SDS011;63913;51.492;10.368;2023-11-22T13:33:34;4.90;;;2.80;;
75316;SDS011;63913;51.492;10.368;2023-11-22T13:36:00;5.45;;;2.25;;
75316;SDS011;63913;51.492;10.368;2023-11-22T13:38:27;5.85;;;2.55;;
75316;SDS011;63913;51.492;10.368;2023-11-22T13:40:53;4.38;;;2.70;;
75316;SDS011;63913;51.492;10.368;2023-11-22T13:43:18;5.55;;;2.53;;
75316;SDS011;63913;51.492;10.368;2023-11-22T13:45:45;6.63;;;2.80;;
75316;SDS011;63913;51.492;10.368;2023-11-22T13:48:10;6.43;;;2.83;;
75316;SDS011;63913;51.492;10.368;2023-11-22T13:50:37;4.95;;;2.80;;
75316;SDS011;63913;51.492;10.368;2023-11-22T13:53:03;4.10;;;2.50;;
75316;SDS011;63913;51.492;10.368;2023-11-22T13:55:29;5.07;;;2.60;;
75316;SDS011;63913;51.492;10.368;2023-11-22T13:57:56;7.22;;;2.92;;
75316;SDS011;63913;51.492;10.368;2023-11-22T14:00:24;13.73;;;4.72;;
75316;SDS011;63913;51.492;10.368;2023-11-22T14:02:53;5.40;;;2.30;;
75316;SDS011;63913;51.492;10.368;2023-11-22T14:05:25;6.07;;;2.70;;
75316;SDS011;63913;51.492;10.368;2023-11-22T14:07:52;5.50;;;2.67;;
75316;SDS011;63913;51.492;10.368;2023-11-22T14:10:18;3.55;;;2.25;;
75316;SDS011;63913;51.492;10.368;2023-11-22T14:12:46;4.50;;;2.08;;
75316;SDS011;63913;51.492;10.368;2023-11-22T14:15:12;4.43;;;2.35;;
75316;SDS011;63913;51.492;10.368;2023-11-22T14:17:37;5.47;;;2.38;;
75316;SDS011;63913;51.492;10.368;2023-11-22T14:20:12;3.67;;;2.25;;
75316;SDS011;63913;51.492;10.368;2023-11-22T14:22:38;4.20;;;2.50;;
75316;SDS011;63913;51.492;10.368;2023-11-22T14:25:06;5.53;;;2.58;;
75316;SDS011;63913;51.492;10.368;2023-11-22T14:27:46;6.78;;;3.20;;
75316;SDS011;63913;51.492;10.368;2023-11-22T14:30:13;6.63;;;2.45;;
75316;SDS011;63913;51.492;10.368;2023-11-22T14:32:42;8.85;;;3.20;;
75316;SDS011;63913;51.492;10.368;2023-11-22T14:35:07;8.25;;;2.78;;
75316;SDS011;63913;51.492;10.368;2023-11-22T14:37:34;4.75;;;2.20;;